sensor_id;sensor_type;location;lat;lon;timestamp;P1;durP1;ratioP1;P2;durP2;ratioP2
76296;SDS011;65104;52.994;6.552;2023-04-24T00:00:55;0.82;;;0.82;;
76296;SDS011;65104;52.994;6.552;2023-04-24T00:03:22;2.22;;;0.73;;
76296;SDS011;65104;52.994;6.552;2023-04-24T00:05:51;0.90;;;0.80;;
76296;SDS011;65104;52.994;6.552;2023-04-24T00:08:17;0.75;;;0.65;;
76296;SDS011;65104;52.994;6.552;2023-04-24T00:10:43;0.60;;;0.60;;
76296;SDS011;65104;52.994;6.552;2023-04-24T00:13:08;1.10;;;0.70;;
76296;SDS011;65104;52.994;6.552;2023-04-24T00:15:33;0.70;;;0.70;;
76296;SDS011;65104;52.994;6.552;2023-04-24T00:17:59;0.57;;;0.55;;
76296;SDS011;65104;52.994;6.552;2023-04-24T00:20:26;0.63;;;0.63;;
76296;SDS011;65104;52.994;6.552;2023-04-24T00:22:53;2.40;;;0.90;;
76296;SDS011;65104;52.994;6.552;2023-04-24T00:25:18;0.90;;;0.90;;
76296;SDS011;65104;52.994;6.552;2023-04-24T00:27:44;1.42;;;0.68;;
76296;SDS011;65104;52.994;6.552;2023-04-24T00:30:09;0.93;;;0.93;;
76296;SDS011;65104;52.994;6.552;2023-04-24T00:32:35;0.93;;;0.80;;
76296;SDS011;65104;52.994;6.552;2023-04-24T00:35:00;0.60;;;0.57;;
76296;SDS011;65104;52.994;6.552;2023-04-24T00:37:25;0.65;;;0.65;;
76296;SDS011;65104;52.994;6.552;2023-04-24T00:39:51;1.02;;;0.90;;
76296;SDS011;65104;52.994;6.552;2023-04-24T00:42:16;1.20;;;0.90;;
76296;SDS011;65104;52.994;6.552;2023-04-24T00:44:41;1.15;;;1.05;;
76296;SDS011;65104;52.994;6.552;2023-04-24T00:47:07;0.98;;;0.90;;
76296;SDS011;65104;52.994;6.552;2023-04-24T00:49:32;0.73;;;0.70;;
76296;SDS011;65104;52.994;6.552;2023-04-24T00:51:58;1.17;;;1.00;;
76296;SDS011;65104;52.994;6.552;2023-04-24T00:54:24;2.03;;;1.05;;
76296;SDS011;65104;52.994;6.552;2023-04-24T00:56:50;1.25;;;1.15;;
76296;SDS011;65104;52.994;6.552;2023-04-24T00:59:16;1.15;;;1.05;;
76296;SDS011;65104;52.994;6.552;2023-04-24T01:01:42;0.80;;;0.80;;
76296;SDS011;65104;52.994;6.552;2023-04-24T01:04:09;1.25;;;1.15;;
76296;SDS011;65104;52.994;6.552;2023-04-24T01:06:37;1.25;;;1.15;;
76296;SDS011;65104;52.994;6.552;2023-04-24T01:09:04;1.95;;;1.40;;
76296;SDS011;65104;52.994;6.552;2023-04-24T01:11:29;2.40;;;1.50;;
76296;SDS011;65104;52.994;6.552;2023-04-24T01:13:56;2.53;;;1.35;;
76296;SDS011;65104;52.994;6.552;2023-04-24T01:16:21;1.50;;;1.35;;
76296;SDS011;65104;52.994;6.552;2023-04-24T01:18:47;1.58;;;1.45;;
76296;SDS011;65104;52.994;6.552;2023-04-24T01:21:13;1.60;;;1.48;;
76296;SDS011;65104;52.994;6.552;2023-04-24T01:23:41;1.77;;;1.52;;
76296;SDS011;65104;52.994;6.552;2023-04-24T01:26:08;2.05;;;1.50;;
76296;SDS011;65104;52.994;6.552;2023-04-24T01:28:33;2.40;;;1.90;;
76296;SDS011;65104;52.994;6.552;2023-04-24T01:30:59;1.85;;;1.60;;
76296;SDS011;65104;52.994;6.552;2023-04-24T01:33:24;1.90;;;1.55;;
76296;SDS011;65104;52.994;6.552;2023-04-24T01:35:50;3.42;;;1.95;;
76296;SDS011;65104;52.994;6.552;2023-04-24T01:38:16;2.10;;;1.85;;
76296;SDS011;65104;52.994;6.552;2023-04-24T01:40:41;2.17;;;1.77;;
76296;SDS011;65104;52.994;6.552;2023-04-24T01:43:07;2.22;;;2.03;;
76296;SDS011;65104;52.994;6.552;2023-04-24T01:45:32;2.90;;;2.58;;
76296;SDS011;65104;52.994;6.552;2023-04-24T01:47:58;4.50;;;2.97;;
76296;SDS011;65104;52.994;6.552;2023-04-24T01:50:23;4.25;;;2.75;;
76296;SDS011;65104;52.994;6.552;2023-04-24T01:52:49;4.03;;;2.50;;
76296;SDS011;65104;52.994;6.552;2023-04-24T01:55:16;4.07;;;2.70;;
76296;SDS011;65104;52.994;6.552;2023-04-24T01:57:41;4.25;;;2.90;;
76296;SDS011;65104;52.994;6.552;2023-04-24T02:00:07;5.32;;;3.03;;
76296;SDS011;65104;52.994;6.552;2023-04-24T02:02:33;4.03;;;2.53;;
76296;SDS011;65104;52.994;6.552;2023-04-24T02:04:58;4.45;;;3.15;;
76296;SDS011;65104;52.994;6.552;2023-04-24T02:07:24;4.55;;;3.28;;
76296;SDS011;65104;52.994;6.552;2023-04-24T02:09:49;6.18;;;3.30;;
76296;SDS011;65104;52.994;6.552;2023-04-24T02:12:15;5.45;;;3.90;;
76296;SDS011;65104;52.994;6.552;2023-04-24T02:14:42;6.35;;;3.47;;
76296;SDS011;65104;52.994;6.552;2023-04-24T02:17:08;4.22;;;3.40;;
76296;SDS011;65104;52.994;6.552;2023-04-24T02:19:34;5.20;;;3.30;;
76296;SDS011;65104;52.994;6.552;2023-04-24T02:21:59;6.65;;;3.85;;
76296;SDS011;65104;52.994;6.552;2023-04-24T02:24:24;4.22;;;3.08;;
76296;SDS011;65104;52.994;6.552;2023-04-24T02:26:50;5.03;;;3.47;;
76296;SDS011;65104;52.994;6.552;2023-04-24T02:29:15;7.25;;;3.92;;
76296;SDS011;65104;52.994;6.552;2023-04-24T02:31:40;5.80;;;3.67;;
76296;SDS011;65104;52.994;6.552;2023-04-24T02:34:06;7.07;;;3.60;;
76296;SDS011;65104;52.994;6.552;2023-04-24T02:36:31;5.63;;;3.92;;
76296;SDS011;65104;52.994;6.552;2023-04-24T02:38:57;6.50;;;4.70;;
76296;SDS011;65104;52.994;6.552;2023-04-24T02:41:22;7.50;;;5.35;;
76296;SDS011;65104;52.994;6.552;2023-04-24T02:43:48;7.13;;;5.28;;
76296;SDS011;65104;52.994;6.552;2023-04-24T02:46:13;6.53;;;4.97;;
76296;SDS011;65104;52.994;6.552;2023-04-24T02:48:38;7.20;;;5.05;;
76296;SDS011;65104;52.994;6.552;2023-04-24T02:51:04;7.32;;;5.72;;
76296;SDS011;65104;52.994;6.552;2023-04-24T02:53:29;5.63;;;4.57;;
76296;SDS011;65104;52.994;6.552;2023-04-24T02:55:55;6.93;;;5.05;;
76296;SDS011;65104;52.994;6.552;2023-04-24T02:58:21;6.22;;;5.32;;
76296;SDS011;65104;52.994;6.552;2023-04-24T03:00:47;6.53;;;5.28;;
76296;SDS011;65104;52.994;6.552;2023-04-24T03:03:12;6.55;;;4.85;;
76296;SDS011;65104;52.994;6.552;2023-04-24T03:05:38;6.10;;;5.15;;
76296;SDS011;65104;52.994;6.552;2023-04-24T03:08:03;5.90;;;4.93;;
76296;SDS011;65104;52.994;6.552;2023-04-24T03:10:29;5.63;;;4.68;;
76296;SDS011;65104;52.994;6.552;2023-04-24T03:12:55;5.47;;;4.75;;
76296;SDS011;65104;52.994;6.552;2023-04-24T03:15:20;6.68;;;4.30;;
76296;SDS011;65104;52.994;6.552;2023-04-24T03:17:45;5.13;;;4.55;;
76296;SDS011;65104;52.994;6.552;2023-04-24T03:20:11;5.55;;;4.90;;
76296;SDS011;65104;52.994;6.552;2023-04-24T03:22:37;6.20;;;4.47;;
76296;SDS011;65104;52.994;6.552;2023-04-24T03:25:02;4.15;;;3.53;;
76296;SDS011;65104;52.994;6.552;2023-04-24T03:27:28;4.50;;;3.45;;
76296;SDS011;65104;52.994;6.552;2023-04-24T03:29:53;5.50;;;3.92;;
76296;SDS011;65104;52.994;6.552;2023-04-24T03:32:21;4.20;;;3.25;;
76296;SDS011;65104;52.994;6.552;2023-04-24T03:34:48;4.22;;;3.78;;
76296;SDS011;65104;52.994;6.552;2023-04-24T03:37:14;3.25;;;2.95;;
76296;SDS011;65104;52.994;6.552;2023-04-24T03:39:40;3.97;;;3.55;;
76296;SDS011;65104;52.994;6.552;2023-04-24T03:42:05;4.22;;;3.25;;
76296;SDS011;65104;52.994;6.552;2023-04-24T03:44:30;5.88;;;3.28;;
76296;SDS011;65104;52.994;6.552;2023-04-24T03:46:57;4.18;;;2.97;;
76296;SDS011;65104;52.994;6.552;2023-04-24T03:49:23;4.40;;;3.03;;
76296;SDS011;65104;52.994;6.552;2023-04-24T03:51:48;4.35;;;2.67;;
76296;SDS011;65104;52.994;6.552;2023-04-24T03:54:13;3.13;;;2.45;;
76296;SDS011;65104;52.994;6.552;2023-04-24T03:56:39;3.50;;;2.70;;
76296;SDS011;65104;52.994;6.552;2023-04-24T03:59:04;3.55;;;3.20;;
76296;SDS011;65104;52.994;6.552;2023-04-24T04:01:29;3.92;;;2.58;;
76296;SDS011;65104;52.994;6.552;2023-04-24T04:03:55;3.25;;;2.88;;
76296;SDS011;65104;52.994;6.552;2023-04-24T04:06:21;4.15;;;3.28;;
76296;SDS011;65104;52.994;6.552;2023-04-24T04:08:46;4.75;;;3.75;;
76296;SDS011;65104;52.994;6.552;2023-04-24T04:11:12;3.13;;;2.83;;
76296;SDS011;65104;52.994;6.552;2023-04-24T04:13:38;4.30;;;3.25;;
76296;SDS011;65104;52.994;6.552;2023-04-24T04:16:03;4.32;;;3.60;;
76296;SDS011;65104;52.994;6.552;2023-04-24T04:18:29;3.60;;;3.15;;
76296;SDS011;65104;52.994;6.552;2023-04-24T04:20:54;4.82;;;3.63;;
76296;SDS011;65104;52.994;6.552;2023-04-24T04:23:20;4.60;;;2.67;;
76296;SDS011;65104;52.994;6.552;2023-04-24T04:25:45;4.10;;;3.25;;
76296;SDS011;65104;52.994;6.552;2023-04-24T04:28:11;4.53;;;3.63;;
76296;SDS011;65104;52.994;6.552;2023-04-24T04:30:37;4.90;;;3.33;;
76296;SDS011;65104;52.994;6.552;2023-04-24T04:33:03;3.72;;;2.70;;
76296;SDS011;65104;52.994;6.552;2023-04-24T04:35:28;5.30;;;3.30;;
76296;SDS011;65104;52.994;6.552;2023-04-24T04:37:54;3.28;;;2.45;;
76296;SDS011;65104;52.994;6.552;2023-04-24T04:40:19;2.58;;;2.00;;
76296;SDS011;65104;52.994;6.552;2023-04-24T04:42:44;2.28;;;2.08;;
76296;SDS011;65104;52.994;6.552;2023-04-24T04:45:11;2.03;;;1.80;;
76296;SDS011;65104;52.994;6.552;2023-04-24T04:47:36;1.80;;;1.70;;
76296;SDS011;65104;52.994;6.552;2023-04-24T04:50:02;1.63;;;1.48;;
76296;SDS011;65104;52.994;6.552;2023-04-24T04:52:28;1.88;;;1.77;;
76296;SDS011;65104;52.994;6.552;2023-04-24T04:54:54;1.65;;;1.50;;
76296;SDS011;65104;52.994;6.552;2023-04-24T04:57:20;1.10;;;0.98;;
76296;SDS011;65104;52.994;6.552;2023-04-24T04:59:46;0.50;;;0.50;;
76296;SDS011;65104;52.994;6.552;2023-04-24T05:02:11;2.95;;;0.90;;
76296;SDS011;65104;52.994;6.552;2023-04-24T05:04:37;1.20;;;0.80;;
76296;SDS011;65104;52.994;6.552;2023-04-24T05:07:02;1.17;;;0.80;;
76296;SDS011;65104;52.994;6.552;2023-04-24T05:09:29;1.05;;;1.00;;
76296;SDS011;65104;52.994;6.552;2023-04-24T05:11:54;1.10;;;1.00;;
76296;SDS011;65104;52.994;6.552;2023-04-24T05:14:21;1.45;;;1.13;;
76296;SDS011;65104;52.994;6.552;2023-04-24T05:16:46;1.48;;;1.05;;
76296;SDS011;65104;52.994;6.552;2023-04-24T05:19:12;1.92;;;1.10;;
76296;SDS011;65104;52.994;6.552;2023-04-24T05:21:39;3.22;;;1.20;;
76296;SDS011;65104;52.994;6.552;2023-04-24T05:24:05;1.60;;;1.20;;
76296;SDS011;65104;52.994;6.552;2023-04-24T05:26:31;1.85;;;1.45;;
76296;SDS011;65104;52.994;6.552;2023-04-24T05:28:56;2.53;;;1.63;;
76296;SDS011;65104;52.994;6.552;2023-04-24T05:31:22;2.15;;;1.70;;
76296;SDS011;65104;52.994;6.552;2023-04-24T05:33:47;1.67;;;1.38;;
76296;SDS011;65104;52.994;6.552;2023-04-24T05:36:12;1.52;;;1.27;;
76296;SDS011;65104;52.994;6.552;2023-04-24T05:38:38;1.50;;;1.40;;
76296;SDS011;65104;52.994;6.552;2023-04-24T05:41:03;2.20;;;1.60;;
76296;SDS011;65104;52.994;6.552;2023-04-24T05:43:29;2.70;;;1.60;;
76296;SDS011;65104;52.994;6.552;2023-04-24T05:45:54;2.03;;;1.45;;
76296;SDS011;65104;52.994;6.552;2023-04-24T05:48:20;1.67;;;1.33;;
76296;SDS011;65104;52.994;6.552;2023-04-24T05:50:47;2.08;;;1.67;;
76296;SDS011;65104;52.994;6.552;2023-04-24T05:53:13;1.42;;;1.15;;
76296;SDS011;65104;52.994;6.552;2023-04-24T05:55:38;1.40;;;1.30;;
76296;SDS011;65104;52.994;6.552;2023-04-24T05:58:04;1.60;;;1.30;;
76296;SDS011;65104;52.994;6.552;2023-04-24T06:00:30;1.23;;;0.73;;
76296;SDS011;65104;52.994;6.552;2023-04-24T06:02:55;1.00;;;0.90;;
76296;SDS011;65104;52.994;6.552;2023-04-24T06:05:21;1.50;;;1.40;;
76296;SDS011;65104;52.994;6.552;2023-04-24T06:07:46;1.85;;;1.02;;
76296;SDS011;65104;52.994;6.552;2023-04-24T06:10:12;1.45;;;1.00;;
76296;SDS011;65104;52.994;6.552;2023-04-24T06:12:38;1.73;;;1.33;;
76296;SDS011;65104;52.994;6.552;2023-04-24T06:15:04;1.25;;;1.10;;
76296;SDS011;65104;52.994;6.552;2023-04-24T06:17:30;1.02;;;0.93;;
76296;SDS011;65104;52.994;6.552;2023-04-24T06:19:56;1.13;;;0.80;;
76296;SDS011;65104;52.994;6.552;2023-04-24T06:22:21;1.38;;;1.10;;
76296;SDS011;65104;52.994;6.552;2023-04-24T06:24:46;2.05;;;1.23;;
76296;SDS011;65104;52.994;6.552;2023-04-24T06:27:13;1.40;;;1.10;;
76296;SDS011;65104;52.994;6.552;2023-04-24T06:29:38;1.02;;;0.70;;
76296;SDS011;65104;52.994;6.552;2023-04-24T06:32:04;2.35;;;1.40;;
76296;SDS011;65104;52.994;6.552;2023-04-24T06:34:29;1.75;;;1.27;;
76296;SDS011;65104;52.994;6.552;2023-04-24T06:36:55;1.48;;;1.00;;
76296;SDS011;65104;52.994;6.552;2023-04-24T06:39:21;1.63;;;1.20;;
76296;SDS011;65104;52.994;6.552;2023-04-24T06:41:46;1.92;;;1.25;;
76296;SDS011;65104;52.994;6.552;2023-04-24T06:44:12;4.72;;;2.03;;
76296;SDS011;65104;52.994;6.552;2023-04-24T06:46:39;3.15;;;2.53;;
76296;SDS011;65104;52.994;6.552;2023-04-24T06:49:05;4.63;;;1.60;;
76296;SDS011;65104;52.994;6.552;2023-04-24T06:51:31;3.83;;;1.92;;
76296;SDS011;65104;52.994;6.552;2023-04-24T06:53:57;6.00;;;2.33;;
76296;SDS011;65104;52.994;6.552;2023-04-24T06:56:23;7.63;;;3.20;;
76296;SDS011;65104;52.994;6.552;2023-04-24T06:58:49;5.47;;;2.63;;
76296;SDS011;65104;52.994;6.552;2023-04-24T07:01:14;4.65;;;2.45;;
76296;SDS011;65104;52.994;6.552;2023-04-24T07:03:40;3.53;;;2.42;;
76296;SDS011;65104;52.994;6.552;2023-04-24T07:06:05;4.40;;;2.85;;
76296;SDS011;65104;52.994;6.552;2023-04-24T07:08:31;5.00;;;2.75;;
76296;SDS011;65104;52.994;6.552;2023-04-24T07:10:58;3.67;;;2.42;;
76296;SDS011;65104;52.994;6.552;2023-04-24T07:13:23;3.67;;;2.92;;
76296;SDS011;65104;52.994;6.552;2023-04-24T07:15:49;6.45;;;2.90;;
76296;SDS011;65104;52.994;6.552;2023-04-24T07:18:16;4.35;;;2.40;;
76296;SDS011;65104;52.994;6.552;2023-04-24T07:20:41;2.85;;;2.00;;
76296;SDS011;65104;52.994;6.552;2023-04-24T07:23:07;2.90;;;2.03;;
76296;SDS011;65104;52.994;6.552;2023-04-24T07:25:32;3.33;;;1.73;;
76296;SDS011;65104;52.994;6.552;2023-04-24T07:27:58;3.33;;;2.40;;
76296;SDS011;65104;52.994;6.552;2023-04-24T07:30:23;3.08;;;2.17;;
76296;SDS011;65104;52.994;6.552;2023-04-24T07:32:49;5.53;;;1.80;;
76296;SDS011;65104;52.994;6.552;2023-04-24T07:35:14;2.50;;;1.80;;
76296;SDS011;65104;52.994;6.552;2023-04-24T07:37:39;3.45;;;1.90;;
76296;SDS011;65104;52.994;6.552;2023-04-24T07:40:05;4.07;;;2.00;;
76296;SDS011;65104;52.994;6.552;2023-04-24T07:42:31;1.80;;;1.35;;
76296;SDS011;65104;52.994;6.552;2023-04-24T07:44:59;2.50;;;1.38;;
76296;SDS011;65104;52.994;6.552;2023-04-24T07:47:24;3.03;;;1.73;;
76296;SDS011;65104;52.994;6.552;2023-04-24T07:49:50;2.30;;;1.35;;
76296;SDS011;65104;52.994;6.552;2023-04-24T07:52:16;2.75;;;1.75;;
76296;SDS011;65104;52.994;6.552;2023-04-24T07:54:41;3.08;;;1.88;;
76296;SDS011;65104;52.994;6.552;2023-04-24T07:57:07;3.13;;;1.50;;
76296;SDS011;65104;52.994;6.552;2023-04-24T07:59:33;3.20;;;1.35;;
76296;SDS011;65104;52.994;6.552;2023-04-24T08:01:59;2.00;;;1.65;;
76296;SDS011;65104;52.994;6.552;2023-04-24T08:04:26;4.22;;;1.77;;
76296;SDS011;65104;52.994;6.552;2023-04-24T08:06:51;2.35;;;1.27;;
76296;SDS011;65104;52.994;6.552;2023-04-24T08:09:16;2.65;;;1.70;;
76296;SDS011;65104;52.994;6.552;2023-04-24T08:11:43;3.05;;;1.73;;
76296;SDS011;65104;52.994;6.552;2023-04-24T08:14:08;5.00;;;2.13;;
76296;SDS011;65104;52.994;6.552;2023-04-24T08:16:34;4.00;;;2.58;;
76296;SDS011;65104;52.994;6.552;2023-04-24T08:19:00;6.15;;;3.55;;
76296;SDS011;65104;52.994;6.552;2023-04-24T08:21:25;11.77;;;5.10;;
76296;SDS011;65104;52.994;6.552;2023-04-24T08:23:52;10.50;;;4.38;;
76296;SDS011;65104;52.994;6.552;2023-04-24T08:26:17;14.13;;;6.53;;
76296;SDS011;65104;52.994;6.552;2023-04-24T08:28:43;11.32;;;5.68;;
76296;SDS011;65104;52.994;6.552;2023-04-24T08:31:08;11.63;;;6.57;;
76296;SDS011;65104;52.994;6.552;2023-04-24T08:33:33;14.90;;;6.18;;
76296;SDS011;65104;52.994;6.552;2023-04-24T08:36:03;12.07;;;5.95;;
76296;SDS011;65104;52.994;6.552;2023-04-24T08:38:30;14.70;;;5.97;;
76296;SDS011;65104;52.994;6.552;2023-04-24T08:40:57;9.63;;;5.57;;
76296;SDS011;65104;52.994;6.552;2023-04-24T08:43:24;11.70;;;5.63;;
76296;SDS011;65104;52.994;6.552;2023-04-24T08:45:51;11.18;;;6.13;;
76296;SDS011;65104;52.994;6.552;2023-04-24T08:48:18;11.23;;;6.75;;
76296;SDS011;65104;52.994;6.552;2023-04-24T08:50:43;13.98;;;5.82;;
76296;SDS011;65104;52.994;6.552;2023-04-24T08:53:10;12.90;;;6.00;;
76296;SDS011;65104;52.994;6.552;2023-04-24T08:55:37;10.38;;;5.25;;
76296;SDS011;65104;52.994;6.552;2023-04-24T08:58:02;10.35;;;5.57;;
76296;SDS011;65104;52.994;6.552;2023-04-24T09:00:28;15.18;;;6.90;;
76296;SDS011;65104;52.994;6.552;2023-04-24T09:02:54;12.95;;;5.93;;
76296;SDS011;65104;52.994;6.552;2023-04-24T09:05:21;14.07;;;6.72;;
76296;SDS011;65104;52.994;6.552;2023-04-24T09:07:49;13.55;;;7.30;;
76296;SDS011;65104;52.994;6.552;2023-04-24T09:10:21;14.80;;;7.40;;
76296;SDS011;65104;52.994;6.552;2023-04-24T09:12:48;11.77;;;7.20;;
76296;SDS011;65104;52.994;6.552;2023-04-24T09:15:15;15.77;;;8.48;;
76296;SDS011;65104;52.994;6.552;2023-04-24T09:17:40;15.90;;;7.85;;
76296;SDS011;65104;52.994;6.552;2023-04-24T09:20:06;15.07;;;8.90;;
76296;SDS011;65104;52.994;6.552;2023-04-24T09:22:32;10.60;;;6.32;;
76296;SDS011;65104;52.994;6.552;2023-04-24T09:25:04;16.08;;;7.18;;
76296;SDS011;65104;52.994;6.552;2023-04-24T09:27:32;19.75;;;8.50;;
76296;SDS011;65104;52.994;6.552;2023-04-24T09:29:58;22.58;;;8.73;;
76296;SDS011;65104;52.994;6.552;2023-04-24T09:32:25;16.10;;;9.25;;
76296;SDS011;65104;52.994;6.552;2023-04-24T09:35:12;16.42;;;7.75;;
76296;SDS011;65104;52.994;6.552;2023-04-24T09:37:44;19.10;;;7.68;;
76296;SDS011;65104;52.994;6.552;2023-04-24T09:40:17;12.10;;;7.53;;
76296;SDS011;65104;52.994;6.552;2023-04-24T09:45:11;9.57;;;4.50;;
76296;SDS011;65104;52.994;6.552;2023-04-24T09:47:40;9.70;;;5.45;;
76296;SDS011;65104;52.994;6.552;2023-04-24T09:50:09;12.32;;;6.80;;
76296;SDS011;65104;52.994;6.552;2023-04-24T09:52:37;10.55;;;4.95;;
76296;SDS011;65104;52.994;6.552;2023-04-24T09:55:10;13.07;;;5.10;;
76296;SDS011;65104;52.994;6.552;2023-04-24T09:57:40;10.35;;;5.07;;
76296;SDS011;65104;52.994;6.552;2023-04-24T10:00:18;12.57;;;5.00;;
76296;SDS011;65104;52.994;6.552;2023-04-24T10:02:58;9.65;;;4.63;;
76296;SDS011;65104;52.994;6.552;2023-04-24T10:05:31;6.82;;;4.18;;
76296;SDS011;65104;52.994;6.552;2023-04-24T10:08:10;6.80;;;4.13;;
76296;SDS011;65104;52.994;6.552;2023-04-24T10:10:45;6.03;;;3.85;;
76296;SDS011;65104;52.994;6.552;2023-04-24T10:13:12;6.97;;;3.58;;
76296;SDS011;65104;52.994;6.552;2023-04-24T10:18:05;8.70;;;4.03;;
76296;SDS011;65104;52.994;6.552;2023-04-24T10:20:32;3.80;;;3.25;;
76296;SDS011;65104;52.994;6.552;2023-04-24T10:22:59;7.95;;;4.03;;
76296;SDS011;65104;52.994;6.552;2023-04-24T10:25:26;7.60;;;3.08;;
76296;SDS011;65104;52.994;6.552;2023-04-24T10:27:53;6.53;;;2.97;;
76296;SDS011;65104;52.994;6.552;2023-04-24T10:30:24;6.85;;;3.50;;
76296;SDS011;65104;52.994;6.552;2023-04-24T10:32:51;5.85;;;3.15;;
76296;SDS011;65104;52.994;6.552;2023-04-24T10:35:16;4.28;;;2.30;;
76296;SDS011;65104;52.994;6.552;2023-04-24T10:37:47;7.13;;;3.25;;
76296;SDS011;65104;52.994;6.552;2023-04-24T10:40:19;5.15;;;2.47;;
76296;SDS011;65104;52.994;6.552;2023-04-24T10:42:55;3.90;;;1.75;;
76296;SDS011;65104;52.994;6.552;2023-04-24T10:45:22;5.07;;;2.28;;
76296;SDS011;65104;52.994;6.552;2023-04-24T10:47:58;3.53;;;2.08;;
76296;SDS011;65104;52.994;6.552;2023-04-24T10:50:41;9.73;;;2.72;;
76296;SDS011;65104;52.994;6.552;2023-04-24T10:53:12;5.30;;;1.70;;
76296;SDS011;65104;52.994;6.552;2023-04-24T10:55:50;1.70;;;1.25;;
76296;SDS011;65104;52.994;6.552;2023-04-24T10:58:17;4.28;;;1.95;;
76296;SDS011;65104;52.994;6.552;2023-04-24T11:00:55;4.07;;;1.95;;
76296;SDS011;65104;52.994;6.552;2023-04-24T11:03:28;8.02;;;2.22;;
76296;SDS011;65104;52.994;6.552;2023-04-24T11:05:56;9.95;;;1.92;;
76296;SDS011;65104;52.994;6.552;2023-04-24T11:11:14;3.20;;;1.85;;
76296;SDS011;65104;52.994;6.552;2023-04-24T11:16:28;5.68;;;1.45;;
76296;SDS011;65104;52.994;6.552;2023-04-24T11:21:25;2.50;;;1.23;;
76296;SDS011;65104;52.994;6.552;2023-04-24T11:23:56;2.58;;;1.48;;
76296;SDS011;65104;52.994;6.552;2023-04-24T11:26:22;3.15;;;1.80;;
76296;SDS011;65104;52.994;6.552;2023-04-24T11:29:05;3.58;;;1.10;;
76296;SDS011;65104;52.994;6.552;2023-04-24T11:31:35;5.45;;;1.55;;
76296;SDS011;65104;52.994;6.552;2023-04-24T11:34:08;3.42;;;1.63;;
76296;SDS011;65104;52.994;6.552;2023-04-24T11:36:35;4.60;;;1.63;;
76296;SDS011;65104;52.994;6.552;2023-04-24T11:39:00;1.77;;;1.45;;
76296;SDS011;65104;52.994;6.552;2023-04-24T11:41:26;5.63;;;2.45;;
76296;SDS011;65104;52.994;6.552;2023-04-24T11:43:53;6.15;;;1.60;;
76296;SDS011;65104;52.994;6.552;2023-04-24T11:46:21;3.85;;;1.58;;
76296;SDS011;65104;52.994;6.552;2023-04-24T11:48:46;6.43;;;1.52;;
76296;SDS011;65104;52.994;6.552;2023-04-24T11:51:12;2.25;;;1.33;;
76296;SDS011;65104;52.994;6.552;2023-04-24T11:53:38;3.05;;;0.85;;
76296;SDS011;65104;52.994;6.552;2023-04-24T11:56:04;2.55;;;1.27;;
76296;SDS011;65104;52.994;6.552;2023-04-24T11:58:34;4.05;;;1.25;;
76296;SDS011;65104;52.994;6.552;2023-04-24T12:01:01;2.20;;;1.42;;
76296;SDS011;65104;52.994;6.552;2023-04-24T12:03:26;0.65;;;0.65;;
76296;SDS011;65104;52.994;6.552;2023-04-24T12:05:52;4.97;;;1.13;;
76296;SDS011;65104;52.994;6.552;2023-04-24T12:08:27;5.55;;;1.05;;
76296;SDS011;65104;52.994;6.552;2023-04-24T12:10:53;2.95;;;1.30;;
76296;SDS011;65104;52.994;6.552;2023-04-24T12:13:19;5.45;;;1.27;;
76296;SDS011;65104;52.994;6.552;2023-04-24T12:15:44;2.35;;;0.88;;
76296;SDS011;65104;52.994;6.552;2023-04-24T12:18:11;1.20;;;0.90;;
76296;SDS011;65104;52.994;6.552;2023-04-24T12:23:03;5.03;;;1.30;;
76296;SDS011;65104;52.994;6.552;2023-04-24T12:25:29;1.48;;;0.80;;
76296;SDS011;65104;52.994;6.552;2023-04-24T12:30:31;3.17;;;0.90;;
76296;SDS011;65104;52.994;6.552;2023-04-24T12:32:58;2.00;;;0.93;;
76296;SDS011;65104;52.994;6.552;2023-04-24T12:35:25;0.85;;;0.60;;
76296;SDS011;65104;52.994;6.552;2023-04-24T12:37:53;2.03;;;1.00;;
76296;SDS011;65104;52.994;6.552;2023-04-24T12:40:19;1.70;;;0.90;;
76296;SDS011;65104;52.994;6.552;2023-04-24T12:42:49;0.90;;;0.90;;
76296;SDS011;65104;52.994;6.552;2023-04-24T12:45:16;2.25;;;1.00;;
76296;SDS011;65104;52.994;6.552;2023-04-24T12:47:43;3.50;;;1.08;;
76296;SDS011;65104;52.994;6.552;2023-04-24T12:50:10;1.02;;;0.93;;
76296;SDS011;65104;52.994;6.552;2023-04-24T12:52:37;2.28;;;0.90;;
76296;SDS011;65104;52.994;6.552;2023-04-24T12:55:03;0.65;;;0.65;;
76296;SDS011;65104;52.994;6.552;2023-04-24T12:57:30;5.18;;;1.17;;
76296;SDS011;65104;52.994;6.552;2023-04-24T12:59:56;2.25;;;0.60;;
76296;SDS011;65104;52.994;6.552;2023-04-24T13:02:23;3.22;;;0.77;;
76296;SDS011;65104;52.994;6.552;2023-04-24T13:04:49;1.35;;;0.75;;
76296;SDS011;65104;52.994;6.552;2023-04-24T13:07:16;1.48;;;0.98;;
76296;SDS011;65104;52.994;6.552;2023-04-24T13:09:42;1.85;;;0.55;;
76296;SDS011;65104;52.994;6.552;2023-04-24T13:12:08;2.85;;;0.60;;
76296;SDS011;65104;52.994;6.552;2023-04-24T13:14:34;1.48;;;0.63;;
76296;SDS011;65104;52.994;6.552;2023-04-24T13:17:00;0.80;;;0.47;;
76296;SDS011;65104;52.994;6.552;2023-04-24T13:19:26;1.20;;;0.50;;
76296;SDS011;65104;52.994;6.552;2023-04-24T13:21:52;0.98;;;0.80;;
76296;SDS011;65104;52.994;6.552;2023-04-24T13:24:20;1.38;;;0.95;;
76296;SDS011;65104;52.994;6.552;2023-04-24T13:26:45;2.58;;;0.50;;
76296;SDS011;65104;52.994;6.552;2023-04-24T13:29:11;0.73;;;0.50;;
76296;SDS011;65104;52.994;6.552;2023-04-24T13:31:36;1.83;;;0.70;;
76296;SDS011;65104;52.994;6.552;2023-04-24T13:34:02;1.55;;;0.60;;
76296;SDS011;65104;52.994;6.552;2023-04-24T13:36:28;0.85;;;0.55;;
76296;SDS011;65104;52.994;6.552;2023-04-24T13:38:53;0.50;;;0.50;;
76296;SDS011;65104;52.994;6.552;2023-04-24T13:41:19;2.05;;;0.57;;
76296;SDS011;65104;52.994;6.552;2023-04-24T13:43:44;0.98;;;0.52;;
76296;SDS011;65104;52.994;6.552;2023-04-24T13:46:09;2.88;;;0.52;;
76296;SDS011;65104;52.994;6.552;2023-04-24T13:48:35;1.08;;;0.52;;
76296;SDS011;65104;52.994;6.552;2023-04-24T13:51:00;0.70;;;0.60;;
76296;SDS011;65104;52.994;6.552;2023-04-24T13:53:25;0.30;;;0.30;;
76296;SDS011;65104;52.994;6.552;2023-04-24T13:55:51;1.35;;;0.63;;
76296;SDS011;65104;52.994;6.552;2023-04-24T13:58:16;0.88;;;0.55;;
76296;SDS011;65104;52.994;6.552;2023-04-24T14:00:42;2.92;;;1.13;;
76296;SDS011;65104;52.994;6.552;2023-04-24T14:03:07;0.57;;;0.40;;
76296;SDS011;65104;52.994;6.552;2023-04-24T14:05:32;2.78;;;0.50;;
76296;SDS011;65104;52.994;6.552;2023-04-24T14:07:58;0.85;;;0.52;;
76296;SDS011;65104;52.994;6.552;2023-04-24T14:10:23;1.90;;;0.55;;
76296;SDS011;65104;52.994;6.552;2023-04-24T14:12:49;2.25;;;0.50;;
76296;SDS011;65104;52.994;6.552;2023-04-24T14:15:14;1.23;;;0.52;;
76296;SDS011;65104;52.994;6.552;2023-04-24T14:17:40;3.00;;;0.90;;
76296;SDS011;65104;52.994;6.552;2023-04-24T14:20:05;2.00;;;0.60;;
76296;SDS011;65104;52.994;6.552;2023-04-24T14:22:32;3.50;;;0.90;;
76296;SDS011;65104;52.994;6.552;2023-04-24T14:24:57;2.33;;;0.82;;
76296;SDS011;65104;52.994;6.552;2023-04-24T14:27:23;1.75;;;0.85;;
76296;SDS011;65104;52.994;6.552;2023-04-24T14:29:50;1.13;;;0.98;;
76296;SDS011;65104;52.994;6.552;2023-04-24T14:32:15;2.03;;;1.52;;
76296;SDS011;65104;52.994;6.552;2023-04-24T14:34:41;4.38;;;0.73;;
76296;SDS011;65104;52.994;6.552;2023-04-24T14:37:07;3.03;;;1.15;;
76296;SDS011;65104;52.994;6.552;2023-04-24T14:39:32;1.40;;;0.82;;
76296;SDS011;65104;52.994;6.552;2023-04-24T14:41:58;4.28;;;1.20;;
76296;SDS011;65104;52.994;6.552;2023-04-24T14:44:23;2.85;;;0.82;;
76296;SDS011;65104;52.994;6.552;2023-04-24T14:46:48;6.07;;;0.98;;
76296;SDS011;65104;52.994;6.552;2023-04-24T14:49:14;2.45;;;1.05;;
76296;SDS011;65104;52.994;6.552;2023-04-24T14:51:39;4.40;;;0.93;;
76296;SDS011;65104;52.994;6.552;2023-04-24T14:54:05;9.10;;;1.90;;
76296;SDS011;65104;52.994;6.552;2023-04-24T14:56:31;3.35;;;1.50;;
76296;SDS011;65104;52.994;6.552;2023-04-24T14:58:57;2.75;;;1.48;;